sensor_id;sensor_type;location;lat;lon;timestamp;P1;durP1;ratioP1;P2;durP2;ratioP2
47483;SDS011;54076;50.322;18.650;2023-02-19T00:01:50;5.00;;;2.00;;
47483;SDS011;54076;50.322;18.650;2023-02-19T00:06:52;3.90;;;1.90;;
47483;SDS011;54076;50.322;18.650;2023-02-19T00:11:53;4.20;;;2.20;;
47483;SDS011;54076;50.322;18.650;2023-02-19T00:16:54;4.70;;;2.00;;
47483;SDS011;54076;50.322;18.650;2023-02-19T00:21:55;5.20;;;1.90;;
47483;SDS011;54076;50.322;18.650;2023-02-19T00:26:57;4.50;;;2.40;;
47483;SDS011;54076;50.322;18.650;2023-02-19T00:31:58;5.00;;;2.10;;
47483;SDS011;54076;50.322;18.650;2023-02-19T00:36:59;4.40;;;2.10;;
47483;SDS011;54076;50.322;18.650;2023-02-19T00:42:00;5.40;;;2.20;;
47483;SDS011;54076;50.322;18.650;2023-02-19T00:47:01;7.00;;;2.00;;
47483;SDS011;54076;50.322;18.650;2023-02-19T00:52:03;4.30;;;2.30;;
47483;SDS011;54076;50.322;18.650;2023-02-19T00:57:04;6.30;;;2.30;;
47483;SDS011;54076;50.322;18.650;2023-02-19T01:02:06;5.70;;;2.60;;
47483;SDS011;54076;50.322;18.650;2023-02-19T01:07:07;6.00;;;2.60;;
47483;SDS011;54076;50.322;18.650;2023-02-19T01:12:08;5.30;;;2.30;;
47483;SDS011;54076;50.322;18.650;2023-02-19T01:17:09;6.20;;;2.50;;
47483;SDS011;54076;50.322;18.650;2023-02-19T01:22:10;4.20;;;2.10;;
47483;SDS011;54076;50.322;18.650;2023-02-19T01:27:12;4.80;;;2.50;;
47483;SDS011;54076;50.322;18.650;2023-02-19T01:32:13;5.30;;;2.80;;
47483;SDS011;54076;50.322;18.650;2023-02-19T01:37:14;5.00;;;2.90;;
47483;SDS011;54076;50.322;18.650;2023-02-19T01:42:16;5.20;;;3.10;;
47483;SDS011;54076;50.322;18.650;2023-02-19T01:47:17;4.70;;;2.60;;
47483;SDS011;54076;50.322;18.650;2023-02-19T01:52:24;7.90;;;3.20;;
47483;SDS011;54076;50.322;18.650;2023-02-19T01:57:35;6.40;;;3.50;;
47483;SDS011;54076;50.322;18.650;2023-02-19T02:02:41;5.30;;;2.80;;
47483;SDS011;54076;50.322;18.650;2023-02-19T02:07:44;6.00;;;3.00;;
47483;SDS011;54076;50.322;18.650;2023-02-19T02:13:04;5.50;;;3.00;;
47483;SDS011;54076;50.322;18.650;2023-02-19T02:18:30;5.90;;;2.90;;
47483;SDS011;54076;50.322;18.650;2023-02-19T02:29:25;5.40;;;2.10;;
47483;SDS011;54076;50.322;18.650;2023-02-19T02:40:01;5.20;;;1.80;;
47483;SDS011;54076;50.322;18.650;2023-02-19T02:56:18;4.30;;;1.80;;
47483;SDS011;54076;50.322;18.650;2023-02-19T03:01:27;5.10;;;1.90;;
47483;SDS011;54076;50.322;18.650;2023-02-19T03:06:51;5.50;;;1.90;;
47483;SDS011;54076;50.322;18.650;2023-02-19T03:11:53;6.70;;;2.80;;
47483;SDS011;54076;50.322;18.650;2023-02-19T03:17:28;9.30;;;3.50;;
47483;SDS011;54076;50.322;18.650;2023-02-19T03:22:55;7.40;;;3.30;;
47483;SDS011;54076;50.322;18.650;2023-02-19T03:27:58;9.40;;;3.50;;
47483;SDS011;54076;50.322;18.650;2023-02-19T03:33:07;8.70;;;3.40;;
47483;SDS011;54076;50.322;18.650;2023-02-19T03:43:54;8.10;;;3.50;;
47483;SDS011;54076;50.322;18.650;2023-02-19T03:49:17;6.60;;;3.30;;
47483;SDS011;54076;50.322;18.650;2023-02-19T03:54:30;6.60;;;3.60;;
47483;SDS011;54076;50.322;18.650;2023-02-19T03:59:47;9.80;;;4.50;;
47483;SDS011;54076;50.322;18.650;2023-02-19T04:05:01;8.90;;;4.10;;
47483;SDS011;54076;50.322;18.650;2023-02-19T04:10:12;10.50;;;4.00;;
47483;SDS011;54076;50.322;18.650;2023-02-19T04:15:18;7.40;;;3.60;;
47483;SDS011;54076;50.322;18.650;2023-02-19T04:20:23;8.10;;;3.40;;
47483;SDS011;54076;50.322;18.650;2023-02-19T04:25:26;8.10;;;3.30;;
47483;SDS011;54076;50.322;18.650;2023-02-19T04:30:30;9.70;;;4.10;;
47483;SDS011;54076;50.322;18.650;2023-02-19T04:35:31;9.20;;;4.30;;
47483;SDS011;54076;50.322;18.650;2023-02-19T04:40:32;8.80;;;4.10;;
47483;SDS011;54076;50.322;18.650;2023-02-19T04:45:34;10.10;;;4.90;;
47483;SDS011;54076;50.322;18.650;2023-02-19T04:50:37;8.80;;;3.80;;
47483;SDS011;54076;50.322;18.650;2023-02-19T04:55:39;8.50;;;4.00;;
47483;SDS011;54076;50.322;18.650;2023-02-19T05:00:40;7.30;;;4.10;;
47483;SDS011;54076;50.322;18.650;2023-02-19T05:05:42;8.00;;;3.60;;
47483;SDS011;54076;50.322;18.650;2023-02-19T05:10:43;5.90;;;3.00;;
47483;SDS011;54076;50.322;18.650;2023-02-19T05:15:53;6.00;;;3.10;;
47483;SDS011;54076;50.322;18.650;2023-02-19T05:20:59;5.70;;;3.00;;
47483;SDS011;54076;50.322;18.650;2023-02-19T05:26:12;6.20;;;3.30;;
47483;SDS011;54076;50.322;18.650;2023-02-19T05:31:19;6.00;;;3.10;;
47483;SDS011;54076;50.322;18.650;2023-02-19T05:36:21;5.60;;;3.10;;
47483;SDS011;54076;50.322;18.650;2023-02-19T05:41:29;5.00;;;2.80;;
47483;SDS011;54076;50.322;18.650;2023-02-19T05:46:31;4.10;;;2.00;;
47483;SDS011;54076;50.322;18.650;2023-02-19T05:51:32;4.70;;;2.20;;
47483;SDS011;54076;50.322;18.650;2023-02-19T05:56:36;4.60;;;2.10;;
47483;SDS011;54076;50.322;18.650;2023-02-19T06:01:38;5.00;;;2.30;;
47483;SDS011;54076;50.322;18.650;2023-02-19T06:06:39;5.00;;;3.00;;
47483;SDS011;54076;50.322;18.650;2023-02-19T06:11:41;5.40;;;2.80;;
47483;SDS011;54076;50.322;18.650;2023-02-19T06:16:43;6.50;;;3.40;;
47483;SDS011;54076;50.322;18.650;2023-02-19T06:21:44;8.00;;;3.30;;
47483;SDS011;54076;50.322;18.650;2023-02-19T06:26:46;6.00;;;3.40;;
47483;SDS011;54076;50.322;18.650;2023-02-19T06:31:47;7.50;;;3.40;;
47483;SDS011;54076;50.322;18.650;2023-02-19T06:36:48;5.30;;;3.00;;
47483;SDS011;54076;50.322;18.650;2023-02-19T06:41:50;5.40;;;2.90;;
47483;SDS011;54076;50.322;18.650;2023-02-19T06:46:53;5.40;;;3.40;;
47483;SDS011;54076;50.322;18.650;2023-02-19T06:51:55;7.00;;;3.40;;
47483;SDS011;54076;50.322;18.650;2023-02-19T06:56:56;6.50;;;3.60;;
47483;SDS011;54076;50.322;18.650;2023-02-19T07:01:58;7.00;;;3.70;;
47483;SDS011;54076;50.322;18.650;2023-02-19T07:07:00;7.60;;;3.60;;
47483;SDS011;54076;50.322;18.650;2023-02-19T07:12:01;7.10;;;3.40;;
47483;SDS011;54076;50.322;18.650;2023-02-19T07:17:02;7.10;;;4.00;;
47483;SDS011;54076;50.322;18.650;2023-02-19T07:22:03;10.50;;;5.40;;
47483;SDS011;54076;50.322;18.650;2023-02-19T07:27:04;8.00;;;4.50;;
47483;SDS011;54076;50.322;18.650;2023-02-19T07:32:06;6.50;;;3.60;;
47483;SDS011;54076;50.322;18.650;2023-02-19T07:37:07;6.90;;;3.70;;
47483;SDS011;54076;50.322;18.650;2023-02-19T07:42:08;8.10;;;4.10;;
47483;SDS011;54076;50.322;18.650;2023-02-19T07:47:09;7.40;;;4.10;;
47483;SDS011;54076;50.322;18.650;2023-02-19T07:52:10;8.50;;;3.90;;
47483;SDS011;54076;50.322;18.650;2023-02-19T07:57:11;7.50;;;3.90;;
47483;SDS011;54076;50.322;18.650;2023-02-19T08:02:18;6.50;;;3.50;;
47483;SDS011;54076;50.322;18.650;2023-02-19T08:07:38;7.30;;;3.60;;
47483;SDS011;54076;50.322;18.650;2023-02-19T08:12:40;8.20;;;3.70;;
47483;SDS011;54076;50.322;18.650;2023-02-19T08:17:59;8.00;;;3.90;;
47483;SDS011;54076;50.322;18.650;2023-02-19T08:23:01;10.00;;;4.60;;
47483;SDS011;54076;50.322;18.650;2023-02-19T08:28:02;16.90;;;9.30;;
47483;SDS011;54076;50.322;18.650;2023-02-19T08:33:05;13.70;;;6.10;;
47483;SDS011;54076;50.322;18.650;2023-02-19T08:38:08;11.60;;;5.90;;
47483;SDS011;54076;50.322;18.650;2023-02-19T08:43:13;9.50;;;4.90;;
47483;SDS011;54076;50.322;18.650;2023-02-19T08:48:16;9.20;;;4.70;;
47483;SDS011;54076;50.322;18.650;2023-02-19T08:53:17;11.00;;;5.10;;
47483;SDS011;54076;50.322;18.650;2023-02-19T08:58:18;10.40;;;5.60;;
47483;SDS011;54076;50.322;18.650;2023-02-19T09:03:19;13.30;;;5.60;;
47483;SDS011;54076;50.322;18.650;2023-02-19T09:08:20;8.00;;;4.20;;
47483;SDS011;54076;50.322;18.650;2023-02-19T09:13:22;6.80;;;3.60;;
47483;SDS011;54076;50.322;18.650;2023-02-19T09:18:24;11.30;;;5.30;;
47483;SDS011;54076;50.322;18.650;2023-02-19T09:23:25;8.10;;;4.40;;
47483;SDS011;54076;50.322;18.650;2023-02-19T09:28:27;9.10;;;4.50;;
47483;SDS011;54076;50.322;18.650;2023-02-19T09:33:28;6.80;;;3.50;;
47483;SDS011;54076;50.322;18.650;2023-02-19T09:38:29;6.20;;;3.10;;
47483;SDS011;54076;50.322;18.650;2023-02-19T09:43:30;6.00;;;2.20;;
47483;SDS011;54076;50.322;18.650;2023-02-19T09:48:32;4.60;;;2.10;;
47483;SDS011;54076;50.322;18.650;2023-02-19T09:53:39;4.10;;;1.90;;
47483;SDS011;54076;50.322;18.650;2023-02-19T09:58:48;4.20;;;2.00;;
47483;SDS011;54076;50.322;18.650;2023-02-19T10:03:54;4.20;;;2.20;;
47483;SDS011;54076;50.322;18.650;2023-02-19T10:09:05;4.20;;;1.80;;
47483;SDS011;54076;50.322;18.650;2023-02-19T10:14:37;4.50;;;2.10;;
47483;SDS011;54076;50.322;18.650;2023-02-19T10:19:44;4.30;;;2.20;;
47483;SDS011;54076;50.322;18.650;2023-02-19T10:24:47;5.30;;;2.00;;
47483;SDS011;54076;50.322;18.650;2023-02-19T10:29:51;4.80;;;2.60;;
47483;SDS011;54076;50.322;18.650;2023-02-19T10:35:14;5.50;;;2.20;;
47483;SDS011;54076;50.322;18.650;2023-02-19T10:45:38;4.20;;;2.30;;
47483;SDS011;54076;50.322;18.650;2023-02-19T10:50:54;4.90;;;2.50;;
47483;SDS011;54076;50.322;18.650;2023-02-19T10:56:07;4.20;;;1.90;;
47483;SDS011;54076;50.322;18.650;2023-02-19T11:01:17;4.60;;;2.20;;
47483;SDS011;54076;50.322;18.650;2023-02-19T11:06:20;6.00;;;1.70;;
47483;SDS011;54076;50.322;18.650;2023-02-19T11:11:30;3.90;;;1.60;;
47483;SDS011;54076;50.322;18.650;2023-02-19T11:16:46;5.00;;;2.20;;
47483;SDS011;54076;50.322;18.650;2023-02-19T11:21:51;5.60;;;2.20;;
47483;SDS011;54076;50.322;18.650;2023-02-19T11:26:54;5.20;;;2.20;;
47483;SDS011;54076;50.322;18.650;2023-02-19T11:31:55;5.00;;;2.60;;
47483;SDS011;54076;50.322;18.650;2023-02-19T11:58:56;5.30;;;2.20;;
47483;SDS011;54076;50.322;18.650;2023-02-19T12:10:18;6.70;;;2.60;;
47483;SDS011;54076;50.322;18.650;2023-02-19T12:27:04;7.30;;;2.60;;
47483;SDS011;54076;50.322;18.650;2023-02-19T12:43:23;5.60;;;2.40;;
47483;SDS011;54076;50.322;18.650;2023-02-19T12:48:47;5.90;;;2.40;;
47483;SDS011;54076;50.322;18.650;2023-02-19T12:59:41;4.20;;;1.50;;
47483;SDS011;54076;50.322;18.650;2023-02-19T13:10:32;4.30;;;1.60;;
47483;SDS011;54076;50.322;18.650;2023-02-19T13:15:41;4.50;;;1.60;;
47483;SDS011;54076;50.322;18.650;2023-02-19T13:20:45;4.50;;;2.10;;
47483;SDS011;54076;50.322;18.650;2023-02-19T13:31:19;3.90;;;2.00;;
47483;SDS011;54076;50.322;18.650;2023-02-19T13:36:27;27.00;;;10.00;;
47483;SDS011;54076;50.322;18.650;2023-02-19T13:41:39;5.40;;;2.40;;
47483;SDS011;54076;50.322;18.650;2023-02-19T13:46:44;5.30;;;2.60;;
47483;SDS011;54076;50.322;18.650;2023-02-19T13:51:50;5.20;;;2.40;;
47483;SDS011;54076;50.322;18.650;2023-02-19T14:02:29;6.30;;;2.60;;
47483;SDS011;54076;50.322;18.650;2023-02-19T14:07:54;6.10;;;2.20;;
47483;SDS011;54076;50.322;18.650;2023-02-19T14:12:55;7.20;;;2.70;;
47483;SDS011;54076;50.322;18.650;2023-02-19T14:17:56;6.40;;;2.70;;
47483;SDS011;54076;50.322;18.650;2023-02-19T14:23:07;6.00;;;2.90;;
47483;SDS011;54076;50.322;18.650;2023-02-19T14:28:25;5.80;;;2.60;;
47483;SDS011;54076;50.322;18.650;2023-02-19T14:33:35;7.00;;;3.00;;
47483;SDS011;54076;50.322;18.650;2023-02-19T14:38:48;7.80;;;3.20;;
47483;SDS011;54076;50.322;18.650;2023-02-19T14:43:54;7.20;;;3.10;;
47483;SDS011;54076;50.322;18.650;2023-02-19T14:49:14;9.70;;;3.50;;
47483;SDS011;54076;50.322;18.650;2023-02-19T14:54:34;8.00;;;3.20;;
47483;SDS011;54076;50.322;18.650;2023-02-19T15:00:15;5.90;;;2.60;;
47483;SDS011;54076;50.322;18.650;2023-02-19T15:05:27;6.80;;;2.70;;
47483;SDS011;54076;50.322;18.650;2023-02-19T15:10:31;6.50;;;2.50;;
47483;SDS011;54076;50.322;18.650;2023-02-19T15:15:38;7.70;;;3.10;;
47483;SDS011;54076;50.322;18.650;2023-02-19T15:20:44;5.90;;;2.60;;
47483;SDS011;54076;50.322;18.650;2023-02-19T15:25:46;7.10;;;2.80;;
47483;SDS011;54076;50.322;18.650;2023-02-19T15:30:48;7.00;;;2.80;;
47483;SDS011;54076;50.322;18.650;2023-02-19T15:36:10;8.90;;;3.30;;
47483;SDS011;54076;50.322;18.650;2023-02-19T15:41:19;8.00;;;3.10;;
47483;SDS011;54076;50.322;18.650;2023-02-19T15:46:23;6.40;;;2.90;;
47483;SDS011;54076;50.322;18.650;2023-02-19T15:51:30;6.80;;;3.00;;
47483;SDS011;54076;50.322;18.650;2023-02-19T15:56:42;7.30;;;3.40;;
47483;SDS011;54076;50.322;18.650;2023-02-19T16:01:46;9.30;;;3.30;;
47483;SDS011;54076;50.322;18.650;2023-02-19T16:06:59;8.20;;;3.00;;
47483;SDS011;54076;50.322;18.650;2023-02-19T16:12:15;7.30;;;3.00;;
47483;SDS011;54076;50.322;18.650;2023-02-19T16:17:20;14.60;;;7.20;;
47483;SDS011;54076;50.322;18.650;2023-02-19T16:22:29;5.50;;;2.50;;
47483;SDS011;54076;50.322;18.650;2023-02-19T16:27:39;7.20;;;3.10;;
47483;SDS011;54076;50.322;18.650;2023-02-19T16:32:42;10.20;;;3.40;;
47483;SDS011;54076;50.322;18.650;2023-02-19T16:37:58;10.90;;;4.30;;
47483;SDS011;54076;50.322;18.650;2023-02-19T16:43:24;12.10;;;4.40;;
47483;SDS011;54076;50.322;18.650;2023-02-19T16:48:27;10.20;;;3.70;;
47483;SDS011;54076;50.322;18.650;2023-02-19T16:53:28;9.70;;;3.70;;
47483;SDS011;54076;50.322;18.650;2023-02-19T16:58:30;12.70;;;4.70;;
47483;SDS011;54076;50.322;18.650;2023-02-19T17:03:31;10.80;;;3.80;;
47483;SDS011;54076;50.322;18.650;2023-02-19T17:08:40;9.70;;;3.50;;
47483;SDS011;54076;50.322;18.650;2023-02-19T17:13:43;7.70;;;2.80;;
47483;SDS011;54076;50.322;18.650;2023-02-19T17:18:48;9.80;;;2.70;;
47483;SDS011;54076;50.322;18.650;2023-02-19T17:23:50;8.40;;;3.30;;
47483;SDS011;54076;50.322;18.650;2023-02-19T17:28:52;8.80;;;3.40;;
47483;SDS011;54076;50.322;18.650;2023-02-19T17:33:54;7.80;;;3.20;;
47483;SDS011;54076;50.322;18.650;2023-02-19T17:38:58;8.90;;;3.10;;
47483;SDS011;54076;50.322;18.650;2023-02-19T17:44:01;8.90;;;3.00;;
47483;SDS011;54076;50.322;18.650;2023-02-19T17:49:02;8.50;;;3.40;;
47483;SDS011;54076;50.322;18.650;2023-02-19T17:54:04;8.40;;;3.20;;
47483;SDS011;54076;50.322;18.650;2023-02-19T17:59:05;9.10;;;3.50;;
47483;SDS011;54076;50.322;18.650;2023-02-19T18:04:06;10.80;;;2.90;;
47483;SDS011;54076;50.322;18.650;2023-02-19T18:09:07;13.10;;;4.90;;
47483;SDS011;54076;50.322;18.650;2023-02-19T18:14:10;10.80;;;4.20;;
47483;SDS011;54076;50.322;18.650;2023-02-19T18:19:11;8.80;;;3.70;;
47483;SDS011;54076;50.322;18.650;2023-02-19T18:24:13;10.40;;;3.60;;
47483;SDS011;54076;50.322;18.650;2023-02-19T18:29:14;7.70;;;3.20;;
47483;SDS011;54076;50.322;18.650;2023-02-19T18:34:17;7.70;;;3.00;;
47483;SDS011;54076;50.322;18.650;2023-02-19T18:39:19;9.90;;;3.10;;
47483;SDS011;54076;50.322;18.650;2023-02-19T18:44:21;8.50;;;3.20;;
47483;SDS011;54076;50.322;18.650;2023-02-19T18:49:24;9.40;;;4.00;;
47483;SDS011;54076;50.322;18.650;2023-02-19T18:54:29;13.50;;;4.50;;
47483;SDS011;54076;50.322;18.650;2023-02-19T18:59:31;10.50;;;4.00;;
47483;SDS011;54076;50.322;18.650;2023-02-19T19:04:32;14.00;;;4.60;;
47483;SDS011;54076;50.322;18.650;2023-02-19T19:09:34;12.30;;;4.40;;
47483;SDS011;54076;50.322;18.650;2023-02-19T19:14:36;12.50;;;4.70;;
47483;SDS011;54076;50.322;18.650;2023-02-19T19:19:37;12.00;;;4.50;;
47483;SDS011;54076;50.322;18.650;2023-02-19T19:24:38;14.90;;;4.80;;
47483;SDS011;54076;50.322;18.650;2023-02-19T19:29:39;12.30;;;5.30;;
47483;SDS011;54076;50.322;18.650;2023-02-19T19:34:40;13.00;;;5.40;;
47483;SDS011;54076;50.322;18.650;2023-02-19T19:39:42;12.50;;;5.00;;
47483;SDS011;54076;50.322;18.650;2023-02-19T19:44:43;15.10;;;4.70;;
47483;SDS011;54076;50.322;18.650;2023-02-19T19:49:45;15.70;;;5.20;;
47483;SDS011;54076;50.322;18.650;2023-02-19T19:54:47;17.90;;;5.90;;
47483;SDS011;54076;50.322;18.650;2023-02-19T19:59:49;15.60;;;5.60;;
47483;SDS011;54076;50.322;18.650;2023-02-19T20:04:50;14.30;;;5.30;;
47483;SDS011;54076;50.322;18.650;2023-02-19T20:09:52;13.70;;;5.10;;
47483;SDS011;54076;50.322;18.650;2023-02-19T20:14:53;14.40;;;5.00;;
47483;SDS011;54076;50.322;18.650;2023-02-19T20:19:54;14.50;;;5.30;;
47483;SDS011;54076;50.322;18.650;2023-02-19T20:24:55;16.10;;;5.00;;
47483;SDS011;54076;50.322;18.650;2023-02-19T20:29:56;13.50;;;4.90;;
47483;SDS011;54076;50.322;18.650;2023-02-19T20:34:58;13.40;;;4.40;;
47483;SDS011;54076;50.322;18.650;2023-02-19T20:39:59;14.10;;;4.60;;
47483;SDS011;54076;50.322;18.650;2023-02-19T20:45:00;13.70;;;4.30;;
47483;SDS011;54076;50.322;18.650;2023-02-19T20:50:01;15.90;;;5.30;;
47483;SDS011;54076;50.322;18.650;2023-02-19T20:55:03;12.10;;;4.60;;
47483;SDS011;54076;50.322;18.650;2023-02-19T21:00:04;13.90;;;4.60;;
47483;SDS011;54076;50.322;18.650;2023-02-19T21:05:07;12.00;;;4.60;;
47483;SDS011;54076;50.322;18.650;2023-02-19T21:10:09;13.20;;;4.70;;
47483;SDS011;54076;50.322;18.650;2023-02-19T21:15:11;13.20;;;5.30;;
47483;SDS011;54076;50.322;18.650;2023-02-19T21:20:13;15.20;;;5.50;;
47483;SDS011;54076;50.322;18.650;2023-02-19T21:25:14;15.10;;;4.80;;
47483;SDS011;54076;50.322;18.650;2023-02-19T21:30:16;11.60;;;4.60;;
47483;SDS011;54076;50.322;18.650;2023-02-19T21:35:17;12.80;;;4.90;;
47483;SDS011;54076;50.322;18.650;2023-02-19T21:40:18;11.80;;;4.40;;
47483;SDS011;54076;50.322;18.650;2023-02-19T21:45:21;9.90;;;3.90;;
47483;SDS011;54076;50.322;18.650;2023-02-19T21:50:22;9.90;;;4.20;;
47483;SDS011;54076;50.322;18.650;2023-02-19T21:55:24;13.00;;;4.40;;
47483;SDS011;54076;50.322;18.650;2023-02-19T22:00:25;14.40;;;4.70;;
47483;SDS011;54076;50.322;18.650;2023-02-19T22:05:26;13.70;;;4.50;;
47483;SDS011;54076;50.322;18.650;2023-02-19T22:10:28;13.30;;;4.80;;
47483;SDS011;54076;50.322;18.650;2023-02-19T22:15:29;13.70;;;4.80;;
47483;SDS011;54076;50.322;18.650;2023-02-19T22:20:30;11.60;;;4.70;;
47483;SDS011;54076;50.322;18.650;2023-02-19T22:25:31;10.50;;;4.60;;
47483;SDS011;54076;50.322;18.650;2023-02-19T22:30:32;14.10;;;5.10;;
47483;SDS011;54076;50.322;18.650;2023-02-19T22:35:34;13.00;;;5.30;;
47483;SDS011;54076;50.322;18.650;2023-02-19T22:40:35;11.40;;;4.20;;
47483;SDS011;54076;50.322;18.650;2023-02-19T22:45:36;11.60;;;4.70;;
47483;SDS011;54076;50.322;18.650;2023-02-19T22:50:37;13.20;;;4.80;;
47483;SDS011;54076;50.322;18.650;2023-02-19T22:55:38;11.70;;;5.10;;
47483;SDS011;54076;50.322;18.650;2023-02-19T23:00:39;11.60;;;5.00;;
47483;SDS011;54076;50.322;18.650;2023-02-19T23:05:41;17.50;;;5.60;;
47483;SDS011;54076;50.322;18.650;2023-02-19T23:10:42;12.60;;;5.30;;
47483;SDS011;54076;50.322;18.650;2023-02-19T23:15:43;14.30;;;4.90;;
47483;SDS011;54076;50.322;18.650;2023-02-19T23:20:44;12.50;;;4.40;;
47483;SDS011;54076;50.322;18.650;2023-02-19T23:25:45;13.90;;;4.90;;
47483;SDS011;54076;50.322;18.650;2023-02-19T23:30:46;12.60;;;4.70;;
47483;SDS011;54076;50.322;18.650;2023-02-19T23:35:48;19.90;;;4.50;;
47483;SDS011;54076;50.322;18.650;2023-02-19T23:40:49;12.20;;;4.40;;
47483;SDS011;54076;50.322;18.650;2023-02-19T23:45:50;9.50;;;4.20;;
47483;SDS011;54076;50.322;18.650;2023-02-19T23:50:51;15.40;;;4.80;;
47483;SDS011;54076;50.322;18.650;2023-02-19T23:55:52;9.70;;;4.40;;
